Pensacola, Florida
Current Conditions -  °F | °C
As of 2:17 PM on Sunday 23 Nov 2014 (Local Time) from KPNS Reporting Station
Light Rain Light Rain  
Wind Chill: 63°   Ceiling: 1200
Heat Index: 63°   Visibility: 10mi
Dew Point: 62°   Wind: 17mph
Humidity: 97%   Direction: 220°SW
Pressure: 29.71"   Gusts: 24mph
Location:  30.42°N, 87.22°W
Report Text: KPNS 232017Z 22015G21KT 10SM -RA FEW008 OVC012 17/17 A2971 RMK AO2 P0000 T01720167
Loading
Personal Weather Stations






























Interactive Weather Map New forecast layout! Learn more

10-Day Weather Forecast

Advertisements
Track Severe Weather on mobile